createdAt,value
2022-08-23T00:02:05.682Z,97119.84
2022-08-23T00:04:53.218Z,97123.81
2022-08-23T00:07:38.577Z,97131.78
2022-08-23T00:10:09.813Z,97141.44
2022-08-23T00:12:37.969Z,97153.13
2022-08-23T00:15:10.179Z,97162.66
2022-08-23T00:17:41.122Z,97172.09
2022-08-23T00:20:18.268Z,97177.09
2022-08-23T00:22:46.539Z,97183.19
2022-08-23T00:25:15.523Z,97174.16
2022-08-23T00:27:43.759Z,97182.97
2022-08-23T00:30:14.710Z,97187.41
2022-08-23T00:32:43.593Z,97178.66
2022-08-23T00:35:26.473Z,97178.75
2022-08-23T00:38:32.418Z,97180.75
2022-08-23T00:40:51.700Z,97174.63
2022-08-23T00:43:25.763Z,97180.13
2022-08-23T00:46:11.793Z,97171.88
2022-08-23T00:48:40.933Z,97170.38
2022-08-23T00:51:14.062Z,97170.66
2022-08-23T00:53:47.018Z,97174.75
2022-08-23T00:56:18.358Z,97176.59
2022-08-23T00:58:48.772Z,97176.22
2022-08-23T01:01:17.896Z,97174.69
2022-08-23T01:03:57.142Z,97178.69
2022-08-23T01:06:42.372Z,97177.09
2022-08-23T01:09:14.960Z,97171.91
2022-08-23T01:12:00.643Z,97174.53
2022-08-23T01:14:37.431Z,97167.09
2022-08-23T01:17:11.320Z,97182.22
2022-08-23T01:19:42.647Z,97172.44
2022-08-23T01:22:26.045Z,97173.94
2022-08-23T01:25:08.211Z,97163.56
2022-08-23T01:27:37.824Z,97164.44
2022-08-23T01:30:12.447Z,97156.13
2022-08-23T01:32:53.729Z,97144.69
2022-08-23T01:37:58.114Z,97124.59
2022-08-23T01:40:26.441Z,97130.38
2022-08-23T01:42:54.507Z,97128.19
2022-08-23T01:45:22.610Z,97128.06
2022-08-23T01:47:50.710Z,97143.53
2022-08-23T01:50:21.634Z,97146.88
2022-08-23T01:52:49.748Z,97154.06
2022-08-23T01:55:18.766Z,97140.91
2022-08-23T01:57:52.135Z,97142.78
2022-08-23T02:00:23.301Z,97137.50
2022-08-23T02:02:51.435Z,97130.09
2022-08-23T02:05:21.076Z,97138.44
2022-08-23T02:07:49.603Z,97148.19
2022-08-23T02:10:17.872Z,97154.59
2022-08-23T02:12:46.290Z,97164.56
2022-08-23T02:15:15.313Z,97189.06
2022-08-23T02:17:43.933Z,97199.88
2022-08-23T02:20:12.624Z,97202.63
2022-08-23T02:22:43.514Z,97221.00
2022-08-23T02:25:11.576Z,97212.88
2022-08-23T02:27:42.917Z,97222.50
2022-08-23T02:30:12.968Z,97232.56
2022-08-23T02:32:41.038Z,97240.41
2022-08-23T02:35:12.477Z,97256.34
2022-08-23T02:37:40.555Z,97278.13
2022-08-23T02:40:09.173Z,97307.50
2022-08-23T02:42:37.278Z,97317.00
2022-08-23T02:45:05.685Z,97312.53
2022-08-23T02:47:33.743Z,97313.75
2022-08-23T02:50:01.833Z,97315.50
2022-08-23T02:52:29.827Z,97293.88
2022-08-23T02:55:00.198Z,97304.09
2022-08-23T02:57:29.893Z,97307.56
2022-08-23T03:00:02.038Z,97301.81
2022-08-23T03:02:33.820Z,97318.25
2022-08-23T03:05:01.872Z,97332.47
2022-08-23T03:07:32.225Z,97330.19
2022-08-23T03:10:04.468Z,97333.44
2022-08-23T03:12:33.321Z,97333.19
2022-08-23T03:15:06.740Z,97327.66
2022-08-23T03:17:36.037Z,97335.69
2022-08-23T03:20:04.847Z,97344.38
2022-08-23T03:22:35.807Z,97341.84
2022-08-23T03:25:04.847Z,97362.41
2022-08-23T03:27:32.865Z,97368.78
2022-08-23T03:30:11.725Z,97366.72
2022-08-23T03:32:49.658Z,97365.84
2022-08-23T03:35:20.058Z,97365.75
2022-08-23T03:37:54.746Z,97366.84
2022-08-23T03:40:23.376Z,97364.81
2022-08-23T03:42:53.841Z,97365.47
2022-08-23T03:45:21.937Z,97361.34
2022-08-23T03:47:50.049Z,97358.88
2022-08-23T03:50:18.112Z,97355.38
2022-08-23T03:52:46.148Z,97362.06
2022-08-23T03:55:17.770Z,97358.59
2022-08-23T03:57:45.830Z,97357.56
2022-08-23T04:00:15.452Z,97344.75
2022-08-23T04:02:51.051Z,97353.59
2022-08-23T04:05:19.232Z,97354.66
2022-08-23T04:07:47.304Z,97360.28
2022-08-23T04:10:15.419Z,97350.69
2022-08-23T04:12:44.088Z,97357.13
2022-08-23T04:15:13.674Z,97354.56
2022-08-23T04:17:42.229Z,97358.97
2022-08-23T04:20:13.323Z,97346.50
2022-08-23T04:22:41.405Z,97350.25
2022-08-23T04:25:26.099Z,97356.41
2022-08-23T04:28:00.955Z,97347.75
2022-08-23T04:30:29.653Z,97344.78
2022-08-23T04:33:01.639Z,97343.91
2022-08-23T04:35:29.920Z,97348.06
2022-08-23T04:38:00.558Z,97348.84
2022-08-23T04:40:28.742Z,97339.06
2022-08-23T04:42:57.370Z,97339.03
2022-08-23T04:45:25.752Z,97341.97
2022-08-23T04:47:54.233Z,97339.91
2022-08-23T04:50:22.593Z,97345.56
2022-08-23T04:52:50.616Z,97337.50
2022-08-23T04:55:18.756Z,97340.72
2022-08-23T04:57:49.472Z,97339.22
2022-08-23T05:00:20.497Z,97340.38
2022-08-23T05:02:48.546Z,97340.28
2022-08-23T05:05:19.609Z,97335.16
2022-08-23T05:07:50.250Z,97330.66
2022-08-23T05:10:18.313Z,97327.94
2022-08-23T05:12:49.454Z,97328.34
2022-08-23T05:15:17.596Z,97331.00
2022-08-23T05:17:45.645Z,97319.66
2022-08-23T05:20:13.918Z,97320.06
2022-08-23T05:22:44.766Z,97321.25
2022-08-23T05:25:12.979Z,97319.28
2022-08-23T05:27:41.075Z,97314.97
2022-08-23T05:30:11.238Z,97320.97
2022-08-23T05:32:43.466Z,97319.53
2022-08-23T05:35:14.473Z,97327.56
2022-08-23T05:37:43.365Z,97329.91
2022-08-23T05:40:13.915Z,97328.03
2022-08-23T05:42:44.918Z,97335.06
2022-08-23T05:45:12.958Z,97335.31
2022-08-23T05:47:44.018Z,97336.75
2022-08-23T05:50:12.984Z,97345.16
2022-08-23T05:52:41.515Z,97350.69
2022-08-23T05:55:09.775Z,97353.41
2022-08-23T05:57:40.247Z,97352.84
2022-08-23T06:00:13.509Z,97336.03
2022-08-23T06:02:41.730Z,97334.41
2022-08-23T06:05:10.400Z,97338.13
2022-08-23T06:07:41.890Z,97338.22
2022-08-23T06:10:16.160Z,97330.97
2022-08-23T06:12:44.592Z,97336.97
2022-08-23T06:15:12.636Z,97340.16
2022-08-23T06:17:43.473Z,97338.09
2022-08-23T06:20:15.252Z,97338.88
2022-08-23T06:22:46.027Z,97344.78
2022-08-23T06:25:14.068Z,97348.06
2022-08-23T06:27:44.947Z,97351.06
2022-08-23T06:30:14.047Z,97355.44
2022-08-23T06:32:42.134Z,97362.88
2022-08-23T06:35:37.580Z,97371.75
2022-08-23T06:38:04.922Z,97379.72
2022-08-23T06:40:34.761Z,97385.31
2022-08-23T06:43:06.205Z,97372.56
2022-08-23T06:45:35.202Z,97375.91
2022-08-23T06:48:04.409Z,97383.31
2022-08-23T06:50:32.870Z,97375.47
2022-08-23T06:53:00.952Z,97377.44
2022-08-23T06:55:37.978Z,97374.53
2022-08-23T06:58:05.983Z,97375.13
2022-08-23T07:00:34.102Z,97376.56
2022-08-23T07:03:04.218Z,97361.53
2022-08-23T07:05:32.541Z,97362.50
2022-08-23T07:08:05.502Z,97361.50
2022-08-23T07:10:35.871Z,97364.50
2022-08-23T07:13:04.540Z,97364.59
2022-08-23T07:15:32.578Z,97362.66
2022-08-23T07:18:00.816Z,97362.09
2022-08-23T07:20:28.905Z,97360.47
2022-08-23T07:22:56.978Z,97359.88
2022-08-23T07:25:25.631Z,97360.94
2022-08-23T07:27:53.672Z,97365.13
2022-08-23T07:30:21.831Z,97365.19
2022-08-23T07:32:50.161Z,97355.66
2022-08-23T07:35:18.294Z,97361.41
2022-08-23T07:37:49.153Z,97360.44
2022-08-23T07:40:20.522Z,97364.47
2022-08-23T07:42:48.932Z,97367.13
2022-08-23T07:45:17.467Z,97357.16
2022-08-23T07:47:50.263Z,97358.34
2022-08-23T07:50:18.807Z,97357.16
2022-08-23T07:52:47.252Z,97356.75
2022-08-23T07:55:15.339Z,97358.88
2022-08-23T07:57:43.360Z,97354.19
2022-08-23T08:00:11.735Z,97363.97
2022-08-23T08:02:39.885Z,97360.00
2022-08-23T08:05:11.375Z,97361.69
2022-08-23T08:07:42.067Z,97370.81
2022-08-23T08:10:10.497Z,97365.09
2022-08-23T08:12:38.574Z,97365.53
2022-08-23T08:15:07.127Z,97363.66
2022-08-23T08:17:35.162Z,97367.53
2022-08-23T08:20:06.137Z,97367.88
2022-08-23T08:22:34.231Z,97359.50
2022-08-23T08:25:02.863Z,97357.00
2022-08-23T08:27:35.629Z,97363.78
2022-08-23T08:30:07.570Z,97363.66
2022-08-23T08:32:46.738Z,97363.97
2022-08-23T08:35:17.687Z,97352.75
2022-08-23T08:37:49.005Z,97354.06
2022-08-23T08:40:22.166Z,97351.53
2022-08-23T08:43:35.383Z,97355.59
2022-08-23T08:46:05.346Z,97358.13
2022-08-23T08:48:40.533Z,97359.31
2022-08-23T08:51:18.115Z,97358.31
2022-08-23T08:53:50.718Z,97355.72
2022-08-23T08:56:32.666Z,97346.94
2022-08-23T08:59:04.309Z,97354.69
2022-08-23T09:01:37.772Z,97347.03
2022-08-23T09:04:08.399Z,97343.06
2022-08-23T09:06:53.981Z,97344.47
2022-08-23T09:09:34.974Z,97340.56
2022-08-23T09:12:16.096Z,97340.88
2022-08-23T09:14:44.257Z,97340.56
2022-08-23T09:17:30.250Z,97349.72
2022-08-23T09:20:00.474Z,97338.63
2022-08-23T09:22:42.104Z,97345.84
2022-08-23T09:25:11.987Z,97350.31
2022-08-23T09:27:41.612Z,97349.22
2022-08-23T09:30:11.009Z,97343.53
2022-08-23T09:32:42.482Z,97351.63
2022-08-23T09:35:21.410Z,97347.44
2022-08-23T09:38:01.403Z,97339.03
2022-08-23T09:40:45.386Z,97338.03
2022-08-23T09:43:25.450Z,97352.91
2022-08-23T09:45:53.421Z,97347.88
2022-08-23T09:48:40.594Z,97347.28
2022-08-23T09:51:27.979Z,97354.06
2022-08-23T09:54:12.266Z,97353.28
2022-08-23T09:56:43.831Z,97353.09
2022-08-23T09:59:27.457Z,97353.09
2022-08-23T10:01:58.403Z,97358.44
2022-08-23T10:04:38.349Z,97353.28
2022-08-23T10:07:30.581Z,97348.41
2022-08-23T10:10:22.357Z,97356.91
2022-08-23T10:12:53.676Z,97360.38
2022-08-23T10:15:25.956Z,97358.31
2022-08-23T10:18:08.389Z,97357.34
2022-08-23T10:21:04.913Z,97356.41
2022-08-23T10:23:43.279Z,97363.97
2022-08-23T10:26:28.229Z,97362.31
2022-08-23T10:29:09.210Z,97363.22
2022-08-23T10:32:07.276Z,97368.44
2022-08-23T10:34:59.085Z,97379.78
2022-08-23T10:37:35.842Z,97381.25
2022-08-23T10:40:30.175Z,97381.59
2022-08-23T10:43:18.502Z,97381.59
2022-08-23T10:45:47.645Z,97384.84
2022-08-23T10:48:24.930Z,97385.09
2022-08-23T10:50:57.461Z,97388.47
2022-08-23T10:53:35.225Z,97387.50
2022-08-23T10:56:03.370Z,97391.44
2022-08-23T10:58:38.030Z,97388.00
2022-08-23T11:01:09.950Z,97387.19
2022-08-23T11:03:45.051Z,97393.31
2022-08-23T11:06:37.091Z,97389.91
2022-08-23T11:09:08.199Z,97389.97
2022-08-23T11:11:51.081Z,97391.72
2022-08-23T11:14:51.222Z,97399.31
2022-08-23T11:17:29.557Z,97400.34
2022-08-23T11:20:00.709Z,97404.50
2022-08-23T11:22:28.672Z,97395.19
2022-08-23T11:25:07.988Z,97393.84
2022-08-23T11:27:42.889Z,97394.97
2022-08-23T11:30:32.728Z,97404.44
2022-08-23T11:33:24.222Z,97398.78
2022-08-23T11:35:56.806Z,97399.06
2022-08-23T11:38:49.430Z,97391.44
2022-08-23T11:41:20.053Z,97398.84
2022-08-23T11:43:50.831Z,97395.16
2022-08-23T11:46:24.728Z,97397.88
2022-08-23T11:49:17.627Z,97391.44
2022-08-23T11:51:45.725Z,97399.72
2022-08-23T11:54:18.531Z,97396.53
2022-08-23T11:57:13.764Z,97391.53
2022-08-23T11:59:44.801Z,97396.50
2022-08-23T12:02:31.822Z,97392.56
2022-08-23T12:05:18.399Z,97390.72
2022-08-23T12:07:51.833Z,97389.31
2022-08-23T12:10:45.863Z,97390.13
2022-08-23T12:13:54.135Z,97391.47
2022-08-23T12:16:22.129Z,97385.38
2022-08-23T12:18:50.474Z,97390.56
2022-08-23T12:21:49.208Z,97390.19
2022-08-23T12:24:19.305Z,97389.81
2022-08-23T12:26:59.245Z,97389.53
2022-08-23T12:29:35.988Z,97394.97
2022-08-23T12:32:22.178Z,97393.44
2022-08-23T12:34:59.551Z,97396.19
2022-08-23T12:38:05.424Z,97404.16
2022-08-23T12:40:42.638Z,97411.94
2022-08-23T12:43:19.823Z,97401.97
2022-08-23T12:46:02.160Z,97405.53
2022-08-23T12:48:34.140Z,97402.19
2022-08-23T12:51:13.312Z,97405.47
2022-08-23T12:53:45.884Z,97403.66
2022-08-23T12:56:31.791Z,97411.84
2022-08-23T12:59:08.531Z,97396.06
2022-08-23T13:01:38.515Z,97400.78
2022-08-23T13:04:15.017Z,97400.72
2022-08-23T13:06:50.216Z,97406.81
2022-08-23T13:09:25.886Z,97412.94
2022-08-23T13:11:54.212Z,97410.06
2022-08-23T13:14:40.816Z,97410.00
2022-08-23T13:17:28.807Z,97407.38
2022-08-23T13:20:04.037Z,97409.88
2022-08-23T13:22:33.266Z,97408.56
2022-08-23T13:25:31.254Z,97420.84
2022-08-23T13:28:04.000Z,97415.50
2022-08-23T13:30:36.180Z,97425.97
2022-08-23T13:33:11.528Z,97413.41
2022-08-23T13:35:41.909Z,97413.81
2022-08-23T13:38:20.827Z,97420.34
2022-08-23T13:41:10.793Z,97416.81
2022-08-23T13:43:44.779Z,97426.31
2022-08-23T13:46:12.877Z,97418.25
2022-08-23T13:48:50.138Z,97428.06
2022-08-23T13:51:38.519Z,97433.78
2022-08-23T13:54:16.699Z,97426.25
2022-08-23T13:57:06.287Z,97425.59
2022-08-23T13:59:39.751Z,97428.78
2022-08-23T14:02:12.112Z,97424.53
2022-08-23T14:04:40.491Z,97430.53
2022-08-23T14:07:09.286Z,97433.91
2022-08-23T14:09:37.762Z,97422.16
2022-08-23T14:12:18.467Z,97415.19
2022-08-23T14:14:47.067Z,97417.94
2022-08-23T14:17:20.588Z,97420.13
2022-08-23T14:20:32.818Z,97420.22
2022-08-23T14:22:40.469Z,97419.91
2022-08-23T14:25:09.574Z,97416.47
2022-08-23T14:27:44.517Z,97419.63
2022-08-23T14:30:22.631Z,97421.69
2022-08-23T14:32:50.678Z,97420.72
2022-08-23T14:35:18.868Z,97426.28
2022-08-23T14:38:03.816Z,97419.19
2022-08-23T14:40:36.346Z,97425.50
2022-08-23T14:43:06.750Z,97422.19
2022-08-23T14:45:34.827Z,97424.06
2022-08-23T14:48:05.349Z,97419.97
2022-08-23T14:50:34.791Z,97430.34
2022-08-23T14:53:05.154Z,97419.88
2022-08-23T14:55:33.167Z,97416.41
2022-08-23T14:58:01.233Z,97417.72
2022-08-23T15:00:29.316Z,97416.22
2022-08-23T15:02:57.663Z,97418.19
2022-08-23T15:05:25.764Z,97422.16
2022-08-23T15:07:53.868Z,97425.72
2022-08-23T15:13:26.920Z,97422.63
2022-08-23T15:15:59.851Z,97424.09
2022-08-23T15:18:28.211Z,97428.19
2022-08-23T15:20:56.513Z,97426.56
2022-08-23T15:23:24.755Z,97427.72
2022-08-23T15:25:55.839Z,97427.69
2022-08-23T15:28:25.407Z,97431.44
2022-08-23T15:30:53.700Z,97428.63
2022-08-23T15:33:27.082Z,97417.28
2022-08-23T15:35:58.969Z,97426.66
2022-08-23T15:38:27.264Z,97417.88
2022-08-23T15:40:55.900Z,97425.59
2022-08-23T15:43:24.782Z,97424.78
2022-08-23T15:46:06.598Z,97423.31
2022-08-23T15:48:44.180Z,97413.28
2022-08-23T15:51:13.353Z,97415.53
2022-08-23T15:53:41.509Z,97421.00
2022-08-23T15:56:11.952Z,97418.75
2022-08-23T15:58:40.266Z,97426.03
2022-08-23T16:01:08.575Z,97422.88
2022-08-23T16:03:38.084Z,97420.16
2022-08-23T16:06:07.019Z,97413.06
2022-08-23T16:08:37.649Z,97406.09
2022-08-23T16:11:06.829Z,97402.13
2022-08-23T16:13:34.839Z,97403.91
2022-08-23T16:16:06.914Z,97406.53
2022-08-23T16:18:34.964Z,97401.50
2022-08-23T16:21:05.447Z,97399.78
2022-08-23T16:23:36.458Z,97391.47
2022-08-23T16:26:04.507Z,97387.44
2022-08-23T16:28:32.529Z,97382.53
2022-08-23T16:31:00.627Z,97384.72
2022-08-23T16:33:31.656Z,97379.06
2022-08-23T16:35:59.681Z,97380.13
2022-08-23T16:38:27.706Z,97378.94
2022-08-23T16:40:55.777Z,97375.81
2022-08-23T16:43:23.832Z,97376.00
2022-08-23T16:45:54.805Z,97382.69
2022-08-23T16:48:22.899Z,97380.59
2022-08-23T16:50:50.976Z,97384.28
2022-08-23T16:53:19.147Z,97386.31
2022-08-23T16:55:47.225Z,97383.03
2022-08-23T16:58:15.468Z,97382.22
2022-08-23T17:00:43.562Z,97381.06
2022-08-23T17:03:13.927Z,97375.47
2022-08-23T17:05:41.953Z,97370.88
2022-08-23T17:08:12.856Z,97367.84
2022-08-23T17:10:43.433Z,97370.41
2022-08-23T17:13:13.380Z,97376.56
2022-08-23T17:15:41.822Z,97366.19
2022-08-23T17:18:09.853Z,97370.59
2022-08-23T17:20:39.065Z,97374.16
2022-08-23T17:23:08.380Z,97373.53
2022-08-23T17:25:38.180Z,97366.19
2022-08-23T17:28:06.649Z,97362.09
2022-08-23T17:30:37.419Z,97364.69
2022-08-23T17:33:08.130Z,97359.63
2022-08-23T17:35:36.571Z,97355.22
2022-08-23T17:38:07.705Z,97346.31
2022-08-23T17:40:38.883Z,97350.16
2022-08-23T17:43:06.934Z,97345.75
2022-08-23T17:45:44.285Z,97341.28
2022-08-23T17:48:13.137Z,97343.31
2022-08-23T17:50:41.785Z,97339.75
2022-08-23T17:53:10.323Z,97330.44
2022-08-23T17:55:38.952Z,97331.88
2022-08-23T17:58:09.906Z,97341.22
2022-08-23T18:00:39.727Z,97329.84
2022-08-23T18:03:10.844Z,97326.19
2022-08-23T18:05:39.894Z,97333.38
2022-08-23T18:08:08.595Z,97324.75
2022-08-23T18:10:37.194Z,97315.78
2022-08-23T18:13:05.286Z,97314.25
2022-08-23T18:15:33.482Z,97313.78
2022-08-23T18:18:03.997Z,97304.53
2022-08-23T18:20:35.052Z,97305.56
2022-08-23T18:23:05.754Z,97301.06
2022-08-23T18:25:33.783Z,97295.09
2022-08-23T18:28:01.871Z,97292.75
2022-08-23T18:30:29.986Z,97279.50
2022-08-23T18:33:00.751Z,97283.81
2022-08-23T18:35:31.834Z,97271.00
2022-08-23T18:38:04.097Z,97268.50
2022-08-23T18:40:35.006Z,97277.09
2022-08-23T18:43:04.097Z,97274.00
2022-08-23T18:45:35.481Z,97268.34
2022-08-23T18:48:03.624Z,97268.66
2022-08-23T18:50:31.626Z,97260.75
2022-08-23T18:52:59.742Z,97256.44
2022-08-23T18:55:28.074Z,97266.34
2022-08-23T18:57:56.118Z,97257.09
2022-08-23T19:00:24.166Z,97247.28
2022-08-23T19:02:52.271Z,97248.94
2022-08-23T19:05:20.352Z,97243.28
2022-08-23T19:07:51.293Z,97239.41
2022-08-23T19:10:20.596Z,97240.38
2022-08-23T19:13:02.796Z,97239.53
2022-08-23T19:15:31.061Z,97233.28
2022-08-23T19:18:01.917Z,97230.09
2022-08-23T19:20:30.116Z,97222.28
2022-08-23T19:22:58.510Z,97224.19
2022-08-23T19:25:31.673Z,97224.16
2022-08-23T19:27:59.890Z,97219.34
2022-08-23T19:30:28.206Z,97224.56
2022-08-23T19:32:57.265Z,97217.03
2022-08-23T19:35:25.662Z,97217.09
2022-08-23T19:37:53.687Z,97214.47
2022-08-23T19:40:21.792Z,97214.25
2022-08-23T19:42:50.586Z,97220.38
2022-08-23T19:45:19.052Z,97207.97
2022-08-23T19:47:47.280Z,97208.84
2022-08-23T19:50:15.457Z,97205.25
2022-08-23T19:52:51.727Z,97211.44
2022-08-23T19:55:22.461Z,97202.66
2022-08-23T19:57:55.042Z,97196.16
2022-08-23T20:00:24.414Z,97189.66
2022-08-23T20:02:52.476Z,97190.16
2022-08-23T20:05:20.855Z,97191.41
2022-08-23T20:07:51.229Z,97182.00
2022-08-23T20:10:19.352Z,97179.88
2022-08-23T20:12:47.407Z,97175.94
2022-08-23T20:15:15.646Z,97175.22
2022-08-23T20:17:46.587Z,97168.69
2022-08-23T20:20:14.781Z,97166.09
2022-08-23T20:22:42.850Z,97167.38
2022-08-23T20:25:11.016Z,97166.66
2022-08-23T20:27:42.054Z,97165.44
2022-08-23T20:30:11.275Z,97166.41
2022-08-23T20:32:39.387Z,97159.72
2022-08-23T20:35:09.522Z,97158.47
2022-08-23T20:37:37.586Z,97160.88
2022-08-23T20:40:06.635Z,97156.72
2022-08-23T20:42:34.847Z,97152.59
2022-08-23T20:45:02.894Z,97140.59
2022-08-23T20:47:30.881Z,97145.47
2022-08-23T20:49:58.944Z,97137.16
2022-08-23T20:52:26.936Z,97140.44
2022-08-23T20:54:54.991Z,97127.56
2022-08-23T20:57:25.731Z,97124.44
2022-08-23T20:59:56.229Z,97122.38
2022-08-23T21:02:24.368Z,97120.13
2022-08-23T21:04:52.438Z,97120.22
2022-08-23T21:07:20.521Z,97119.09
2022-08-23T21:09:50.283Z,97114.09
2022-08-23T21:12:18.394Z,97112.03
2022-08-23T21:14:48.907Z,97098.03
2022-08-23T21:17:19.334Z,97099.72
2022-08-23T21:19:47.414Z,97097.69
2022-08-23T21:22:15.463Z,97089.94
2022-08-23T21:24:43.517Z,97086.06
2022-08-23T21:27:11.512Z,97079.13
2022-08-23T21:29:39.670Z,97078.31
2022-08-23T21:32:08.291Z,97072.03
2022-08-23T21:34:36.480Z,97080.47
2022-08-23T21:37:04.581Z,97070.41
2022-08-23T21:39:32.587Z,97072.00
2022-08-23T21:42:00.637Z,97063.84
2022-08-23T21:44:28.729Z,97070.00
2022-08-23T21:46:56.737Z,97067.59
2022-08-23T21:49:24.857Z,97060.91
2022-08-23T21:51:52.899Z,97063.88
2022-08-23T21:54:21.259Z,97062.97
2022-08-23T21:56:49.369Z,97053.47
2022-08-23T21:59:20.458Z,97057.25
2022-08-23T22:01:49.328Z,97048.50
2022-08-23T22:04:18.124Z,97046.59
2022-08-23T22:06:47.715Z,97048.22
2022-08-23T22:09:19.596Z,97037.84
2022-08-23T22:11:54.041Z,97042.38
2022-08-23T22:14:25.327Z,97031.69
2022-08-23T22:16:59.856Z,97033.00
2022-08-23T22:19:30.351Z,97027.41
2022-08-23T22:21:58.534Z,97029.50
2022-08-23T22:24:26.664Z,97024.47
2022-08-23T22:26:55.801Z,97018.25
2022-08-23T22:29:27.314Z,97015.25
2022-08-23T22:31:58.290Z,97012.16
2022-08-23T22:34:26.450Z,97015.94
2022-08-23T22:38:36.702Z,97014.13
2022-08-23T22:41:04.958Z,97017.81
2022-08-23T22:43:33.157Z,97018.97
2022-08-23T22:46:10.369Z,97014.22
2022-08-23T22:48:38.675Z,97013.47
2022-08-23T22:51:15.115Z,97014.59
2022-08-23T22:53:46.240Z,97013.25
2022-08-23T22:56:16.975Z,97015.25
2022-08-23T22:58:45.161Z,97010.00
2022-08-23T23:01:34.153Z,97006.47
2022-08-23T23:04:07.002Z,97000.25
2022-08-23T23:06:37.060Z,97000.16
2022-08-23T23:09:07.165Z,97008.78
2022-08-23T23:11:39.979Z,97009.25
2022-08-23T23:14:09.556Z,97008.88
2022-08-23T23:16:37.910Z,97003.59
2022-08-23T23:19:07.110Z,96999.47
2022-08-23T23:21:38.465Z,96999.00
2022-08-23T23:24:06.872Z,96988.34
2022-08-23T23:26:35.119Z,96991.50
2022-08-23T23:29:03.131Z,96981.13
2022-08-23T23:31:31.199Z,96990.00
2022-08-23T23:34:01.909Z,96985.06
2022-08-23T23:36:32.337Z,96984.34
2022-08-23T23:39:00.982Z,96981.66
2022-08-23T23:41:29.083Z,96987.34
2022-08-23T23:43:58.081Z,96992.81
2022-08-23T23:46:26.648Z,96990.75
2022-08-23T23:48:54.811Z,96981.97
2022-08-23T23:51:30.709Z,96988.41
2022-08-23T23:54:01.769Z,96989.25
2022-08-23T23:56:31.537Z,96990.69
2022-08-23T23:59:02.375Z,96997.19
